createdAt,value
2018-07-02T00:00:02.273Z,1.1
2018-07-02T00:10:01.122Z,1.1
2018-07-02T00:15:01.117Z,1.0
2018-07-02T00:20:01.154Z,1.0
2018-07-02T00:25:01.126Z,1.0
2018-07-02T00:30:02.203Z,1.0
2018-07-02T00:35:01.033Z,1.0
2018-07-02T00:40:01.182Z,1.3
2018-07-02T00:45:02.258Z,1.5
2018-07-02T00:50:01.272Z,1.5
2018-07-02T00:55:01.173Z,1.4
2018-07-02T01:00:08.071Z,1.4
2018-07-02T01:05:01.129Z,1.2
2018-07-02T01:10:01.199Z,1.0
2018-07-02T01:15:01.181Z,1.2
2018-07-02T01:20:01.187Z,1.4
2018-07-02T01:25:02.208Z,1.6
2018-07-02T01:30:01.086Z,1.8
2018-07-02T01:35:01.020Z,1.8
2018-07-02T01:45:01.156Z,1.8
2018-07-02T01:50:01.667Z,1.8
2018-07-02T01:55:01.096Z,1.8
2018-07-02T02:00:01.162Z,1.9
2018-07-02T02:05:01.995Z,1.9
2018-07-02T02:10:01.244Z,1.7
2018-07-02T02:15:01.034Z,1.6
2018-07-02T02:20:01.242Z,1.5
2018-07-02T02:25:01.046Z,1.5
2018-07-02T02:30:01.791Z,1.5
2018-07-02T02:35:01.054Z,1.6
2018-07-02T02:40:01.288Z,1.7
2018-07-02T02:45:01.190Z,1.6
2018-07-02T02:50:01.658Z,1.4
2018-07-02T02:55:01.065Z,1.4
2018-07-02T03:00:01.186Z,1.5
2018-07-02T03:05:01.120Z,1.5
2018-07-02T03:10:01.213Z,1.6
2018-07-02T03:15:01.026Z,1.8
2018-07-02T03:20:02.165Z,1.6
2018-07-02T03:25:01.016Z,1.4
2018-07-02T03:30:01.082Z,1.4
2018-07-02T03:35:01.111Z,1.4
2018-07-02T03:40:02.105Z,1.4
2018-07-02T03:45:01.087Z,1.6
2018-07-02T03:50:01.102Z,1.6
2018-07-02T03:55:01.168Z,1.4
2018-07-02T04:00:02.427Z,1.6
2018-07-02T04:05:01.068Z,1.6
2018-07-02T04:10:01.214Z,1.6
2018-07-02T04:15:01.928Z,1.8
2018-07-02T04:20:01.228Z,2.1
2018-07-02T04:25:02.125Z,2.1
2018-07-02T04:30:01.245Z,2.1
2018-07-02T04:35:02.188Z,1.9
2018-07-02T04:45:01.828Z,2.2
2018-07-02T04:50:02.144Z,2.4
2018-07-02T04:55:02.099Z,2.4
2018-07-02T05:00:01.119Z,2.8
2018-07-02T05:05:01.119Z,2.8
2018-07-02T05:10:01.179Z,2.6
2018-07-02T05:15:01.072Z,2.6
2018-07-02T05:20:01.181Z,2.6
2018-07-02T05:25:01.023Z,2.4
2018-07-02T05:30:01.191Z,2.4
2018-07-02T05:40:01.173Z,2.4
2018-07-02T05:45:01.063Z,2.4
2018-07-02T05:50:01.218Z,2.6
2018-07-02T05:55:01.122Z,2.4
2018-07-02T06:00:01.061Z,2.2
2018-07-02T06:05:01.075Z,2.0
2018-07-02T06:10:01.139Z,1.9
2018-07-02T06:15:01.074Z,1.5
2018-07-02T06:25:01.281Z,1.3
2018-07-02T06:30:01.149Z,1.1
2018-07-02T06:35:01.091Z,0.8
2018-07-02T06:40:01.158Z,0.8
2018-07-02T06:45:01.116Z,0.8
2018-07-02T06:50:01.283Z,0.9
2018-07-02T07:00:01.190Z,0.7
2018-07-02T07:10:01.165Z,0.6
2018-07-02T07:15:01.171Z,0.7
2018-07-02T07:20:01.234Z,0.6
2018-07-02T07:30:01.173Z,0.6
2018-07-02T07:35:01.148Z,0.6
2018-07-02T07:45:01.180Z,0.7
2018-07-02T08:00:01.283Z,0.6
2018-07-02T08:05:01.119Z,0.7
2018-07-02T08:15:01.184Z,0.7
2018-07-02T08:25:01.257Z,0.9
2018-07-02T08:30:01.216Z,0.7
2018-07-02T08:45:01.417Z,0.3
2018-07-02T08:50:01.356Z,0.2
2018-07-02T09:00:01.336Z,0.2
2018-07-02T09:05:01.235Z,0.1
2018-07-02T09:15:01.272Z,0.1
2018-07-02T09:20:01.178Z,0.1
2018-07-02T09:25:01.175Z,0.1
2018-07-02T09:30:04.025Z,0.1
2018-07-02T09:35:01.177Z,0.0
2018-07-02T09:45:01.544Z,0.0
2018-07-02T09:50:01.316Z,0.0
2018-07-02T10:00:01.326Z,0.0
2018-07-02T10:05:01.158Z,0.0
2018-07-02T10:10:01.293Z,0.0
2018-07-02T10:15:01.168Z,0.0
2018-07-02T10:20:01.294Z,0.0
2018-07-02T10:25:01.171Z,0.0
2018-07-02T10:30:01.357Z,0.0
2018-07-02T10:40:01.537Z,0.0
2018-07-02T10:45:01.176Z,0.0
2018-07-02T10:55:01.387Z,0.0
2018-07-02T11:00:01.314Z,0.0
2018-07-02T11:05:01.300Z,0.0
2018-07-02T11:10:06.381Z,0.0
2018-07-02T11:15:01.179Z,0.0
2018-07-02T11:20:01.541Z,0.0
2018-07-02T11:25:01.216Z,0.0
2018-07-02T11:30:06.387Z,0.0
2018-07-02T11:40:01.358Z,0.0
2018-07-02T11:45:01.224Z,0.0
2018-07-02T11:50:01.415Z,0.0
2018-07-02T12:00:06.357Z,0.0
2018-07-02T12:05:01.241Z,0.0
2018-07-02T12:10:01.303Z,0.0
2018-07-02T12:15:02.297Z,0.0
2018-07-02T12:20:01.278Z,0.0
2018-07-02T12:30:01.414Z,0.0
2018-07-02T12:40:01.268Z,0.0
2018-07-02T12:45:01.215Z,0.0
2018-07-02T12:50:01.356Z,0.0
2018-07-02T12:55:01.264Z,0.0
2018-07-02T13:00:01.216Z,0.0
2018-07-02T13:05:01.226Z,0.0
2018-07-02T13:15:01.434Z,0.0
2018-07-02T13:25:01.232Z,0.0
2018-07-02T13:30:01.706Z,0.0
2018-07-02T13:40:01.275Z,0.0
2018-07-02T13:45:01.407Z,0.0
2018-07-02T13:55:01.341Z,0.0
2018-07-02T14:00:01.322Z,0.0
2018-07-02T14:10:01.256Z,0.0
2018-07-02T14:15:01.279Z,0.0
2018-07-02T14:20:01.653Z,0.0
2018-07-02T14:25:01.296Z,0.0
2018-07-02T14:30:01.362Z,0.0
2018-07-02T14:35:01.295Z,0.0
2018-07-02T14:40:01.300Z,0.0
2018-07-02T14:45:01.807Z,0.0
2018-07-02T14:55:06.366Z,0.0
2018-07-02T15:00:01.678Z,0.0
2018-07-02T15:05:01.298Z,0.0
2018-07-02T15:10:01.406Z,0.0
2018-07-02T15:15:01.245Z,0.0
2018-07-02T15:20:01.411Z,0.0
2018-07-02T15:30:01.349Z,0.0
2018-07-02T15:35:01.347Z,0.0
2018-07-02T15:40:01.348Z,0.0
2018-07-02T15:45:01.319Z,0.0
2018-07-02T16:00:01.388Z,0.0
2018-07-02T16:05:06.368Z,0.0
2018-07-02T16:10:06.371Z,0.0
2018-07-02T16:15:01.302Z,0.0
2018-07-02T16:25:01.367Z,0.0
2018-07-02T16:30:01.379Z,0.0
2018-07-02T16:35:01.305Z,0.0
2018-07-02T16:40:01.435Z,0.0
2018-07-02T16:45:01.313Z,0.0
2018-07-02T17:00:01.491Z,0.0
2018-07-02T17:05:01.388Z,0.2
2018-07-02T17:10:01.451Z,0.2
2018-07-02T17:15:01.406Z,0.2
2018-07-02T17:20:01.393Z,0.4
2018-07-02T17:25:01.395Z,0.4
2018-07-02T17:30:01.337Z,0.2
2018-07-02T17:35:01.333Z,0.2
2018-07-02T17:45:01.408Z,0.0
2018-07-02T17:50:01.407Z,0.0
2018-07-02T17:55:01.345Z,0.2
2018-07-02T18:00:01.408Z,0.2
2018-07-02T18:05:01.414Z,0.2
2018-07-02T18:15:01.367Z,0.2
2018-07-02T18:20:01.361Z,0.0
2018-07-02T18:25:01.380Z,0.0
2018-07-02T18:30:01.421Z,0.0
2018-07-02T18:40:01.406Z,0.1
2018-07-02T18:45:01.403Z,0.1
2018-07-02T18:55:01.469Z,0.2
2018-07-02T19:00:01.376Z,0.3
2018-07-02T19:05:01.445Z,0.2
2018-07-02T19:15:01.388Z,0.2
2018-07-02T19:20:01.848Z,0.2
2018-07-02T19:30:01.389Z,0.3
2018-07-02T19:35:01.361Z,0.7
2018-07-02T19:40:01.452Z,0.9
2018-07-02T19:45:01.456Z,1.1
2018-07-02T19:50:01.418Z,1.2
2018-07-02T20:00:01.577Z,0.6
2018-07-02T20:05:01.434Z,0.6
2018-07-02T20:10:01.468Z,0.4
2018-07-02T20:15:01.411Z,0.2
2018-07-02T20:25:01.473Z,0.4
2018-07-02T20:30:01.486Z,0.4
2018-07-02T20:35:01.480Z,0.6
2018-07-02T20:40:01.499Z,0.8
2018-07-02T20:45:01.747Z,0.8
2018-07-02T20:50:01.558Z,1.0
2018-07-02T20:55:01.447Z,1.0
2018-07-02T21:00:01.566Z,0.8
2018-07-02T21:05:01.581Z,0.8
2018-07-02T21:10:01.876Z,0.7
2018-07-02T21:15:01.424Z,0.7
2018-07-02T21:20:02.323Z,0.8
2018-07-02T21:25:01.465Z,1.0
2018-07-02T21:30:02.076Z,0.8
2018-07-02T21:35:01.527Z,0.8
2018-07-02T21:40:01.566Z,0.8
2018-07-02T21:45:01.447Z,0.8
2018-07-02T21:55:01.573Z,0.8
2018-07-02T22:00:01.455Z,0.8
2018-07-02T22:05:01.545Z,0.8
2018-07-02T22:10:01.524Z,0.8
2018-07-02T22:15:01.518Z,1.0
2018-07-02T22:20:01.582Z,1.0
2018-07-02T22:25:01.570Z,1.0
2018-07-02T22:30:01.527Z,1.0
2018-07-02T22:35:01.484Z,1.0
2018-07-02T22:45:01.540Z,1.0
2018-07-02T22:50:01.535Z,1.0
2018-07-02T22:55:01.545Z,1.2
2018-07-02T23:00:01.593Z,1.2
2018-07-02T23:05:01.542Z,1.2
2018-07-02T23:10:01.549Z,1.2
2018-07-02T23:15:01.546Z,1.0
2018-07-02T23:25:01.616Z,0.8
2018-07-02T23:30:01.616Z,0.8
2018-07-02T23:35:01.555Z,0.8
2018-07-02T23:40:01.535Z,1.0
2018-07-02T23:45:01.595Z,0.9
2018-07-02T23:55:01.541Z,0.9
